sensor_id;sensor_type;location;lat;lon;timestamp;pressure;altitude;pressure_sealevel;temperature;humidity
72896;BME280;61036;53.224;6.554;2023-05-11T00:00:48;101478.19;;;15.96;100.00
72896;BME280;61036;53.224;6.554;2023-05-11T00:03:14;101477.28;;;16.16;100.00
72896;BME280;61036;53.224;6.554;2023-05-11T00:05:39;101468.69;;;15.90;100.00
72896;BME280;61036;53.224;6.554;2023-05-11T00:08:05;101473.13;;;15.91;100.00
72896;BME280;61036;53.224;6.554;2023-05-11T00:10:30;101471.25;;;15.29;100.00
72896;BME280;61036;53.224;6.554;2023-05-11T00:12:56;101471.38;;;15.48;100.00
72896;BME280;61036;53.224;6.554;2023-05-11T00:15:22;101475.56;;;15.31;100.00
72896;BME280;61036;53.224;6.554;2023-05-11T00:17:47;101471.53;;;15.47;100.00
72896;BME280;61036;53.224;6.554;2023-05-11T00:20:13;101464.00;;;15.92;100.00
72896;BME280;61036;53.224;6.554;2023-05-11T00:22:38;101461.13;;;15.73;100.00
72896;BME280;61036;53.224;6.554;2023-05-11T00:25:04;101462.16;;;15.72;100.00
72896;BME280;61036;53.224;6.554;2023-05-11T00:27:30;101465.59;;;15.95;100.00
72896;BME280;61036;53.224;6.554;2023-05-11T00:29:55;101464.94;;;16.12;100.00
72896;BME280;61036;53.224;6.554;2023-05-11T00:32:21;101468.19;;;15.64;100.00
72896;BME280;61036;53.224;6.554;2023-05-11T00:34:46;101464.75;;;15.73;100.00
72896;BME280;61036;53.224;6.554;2023-05-11T00:37:12;101472.63;;;16.28;100.00
72896;BME280;61036;53.224;6.554;2023-05-11T00:39:37;101467.63;;;16.03;100.00
72896;BME280;61036;53.224;6.554;2023-05-11T00:42:05;101463.38;;;15.47;100.00
72896;BME280;61036;53.224;6.554;2023-05-11T00:44:32;101456.72;;;15.40;100.00
72896;BME280;61036;53.224;6.554;2023-05-11T00:46:58;101453.69;;;15.33;100.00
72896;BME280;61036;53.224;6.554;2023-05-11T00:49:23;101451.84;;;15.75;100.00
72896;BME280;61036;53.224;6.554;2023-05-11T00:51:49;101452.56;;;15.98;100.00
72896;BME280;61036;53.224;6.554;2023-05-11T00:54:15;101460.66;;;16.10;100.00
72896;BME280;61036;53.224;6.554;2023-05-11T00:56:41;101463.91;;;15.08;100.00
72896;BME280;61036;53.224;6.554;2023-05-11T00:59:07;101464.44;;;15.02;100.00
72896;BME280;61036;53.224;6.554;2023-05-11T01:01:33;101475.81;;;15.28;100.00
72896;BME280;61036;53.224;6.554;2023-05-11T01:04:02;101463.91;;;15.62;100.00
72896;BME280;61036;53.224;6.554;2023-05-11T01:09:01;101468.81;;;16.10;100.00
72896;BME280;61036;53.224;6.554;2023-05-11T01:14:03;101473.28;;;15.69;100.00
72896;BME280;61036;53.224;6.554;2023-05-11T01:16:34;101478.19;;;15.43;100.00
72896;BME280;61036;53.224;6.554;2023-05-11T01:19:18;101466.94;;;15.80;100.00
72896;BME280;61036;53.224;6.554;2023-05-11T01:21:49;101467.66;;;16.12;100.00
72896;BME280;61036;53.224;6.554;2023-05-11T01:24:31;101467.94;;;16.09;100.00
72896;BME280;61036;53.224;6.554;2023-05-11T01:32:26;101458.06;;;15.66;100.00
72896;BME280;61036;53.224;6.554;2023-05-11T01:35:06;101461.78;;;16.48;100.00
72896;BME280;61036;53.224;6.554;2023-05-11T01:37:33;101461.94;;;15.85;100.00
72896;BME280;61036;53.224;6.554;2023-05-11T01:40:11;101462.09;;;16.54;100.00
72896;BME280;61036;53.224;6.554;2023-05-11T01:42:41;101465.00;;;16.72;100.00
72896;BME280;61036;53.224;6.554;2023-05-11T01:45:09;101467.88;;;16.71;100.00
72896;BME280;61036;53.224;6.554;2023-05-11T01:47:37;101461.31;;;16.33;100.00
72896;BME280;61036;53.224;6.554;2023-05-11T01:50:05;101459.03;;;16.38;100.00
72896;BME280;61036;53.224;6.554;2023-05-11T01:52:33;101467.22;;;16.38;100.00
72896;BME280;61036;53.224;6.554;2023-05-11T01:55:01;101467.53;;;16.54;100.00
72896;BME280;61036;53.224;6.554;2023-05-11T01:57:29;101464.41;;;16.59;100.00
72896;BME280;61036;53.224;6.554;2023-05-11T01:59:55;101463.25;;;16.52;100.00
72896;BME280;61036;53.224;6.554;2023-05-11T02:02:25;101468.44;;;16.55;100.00
72896;BME280;61036;53.224;6.554;2023-05-11T02:04:51;101470.78;;;16.38;100.00
72896;BME280;61036;53.224;6.554;2023-05-11T02:07:18;101467.13;;;16.49;100.00
72896;BME280;61036;53.224;6.554;2023-05-11T02:09:46;101472.28;;;15.70;100.00
72896;BME280;61036;53.224;6.554;2023-05-11T02:12:13;101474.94;;;15.81;100.00
72896;BME280;61036;53.224;6.554;2023-05-11T02:14:40;101472.16;;;15.92;100.00
72896;BME280;61036;53.224;6.554;2023-05-11T02:17:07;101474.25;;;16.10;100.00
72896;BME280;61036;53.224;6.554;2023-05-11T02:19:34;101478.72;;;16.51;100.00
72896;BME280;61036;53.224;6.554;2023-05-11T02:22:02;101476.38;;;16.37;100.00
72896;BME280;61036;53.224;6.554;2023-05-11T02:24:29;101481.91;;;16.26;100.00
72896;BME280;61036;53.224;6.554;2023-05-11T02:26:55;101478.38;;;16.04;100.00
72896;BME280;61036;53.224;6.554;2023-05-11T02:29:22;101478.00;;;16.18;100.00
72896;BME280;61036;53.224;6.554;2023-05-11T02:31:55;101471.06;;;16.35;100.00
72896;BME280;61036;53.224;6.554;2023-05-11T02:34:23;101473.00;;;16.54;100.00
72896;BME280;61036;53.224;6.554;2023-05-11T02:36:52;101471.66;;;16.39;100.00
72896;BME280;61036;53.224;6.554;2023-05-11T02:39:20;101468.91;;;15.98;100.00
72896;BME280;61036;53.224;6.554;2023-05-11T02:41:51;101475.16;;;16.60;100.00
72896;BME280;61036;53.224;6.554;2023-05-11T02:44:21;101480.63;;;15.99;100.00
72896;BME280;61036;53.224;6.554;2023-05-11T02:46:51;101488.66;;;15.26;100.00
72896;BME280;61036;53.224;6.554;2023-05-11T02:49:21;101498.06;;;15.96;100.00
72896;BME280;61036;53.224;6.554;2023-05-11T02:51:49;101499.13;;;15.63;100.00
72896;BME280;61036;53.224;6.554;2023-05-11T02:54:16;101493.25;;;15.79;100.00
72896;BME280;61036;53.224;6.554;2023-05-11T02:56:47;101490.34;;;16.22;100.00
72896;BME280;61036;53.224;6.554;2023-05-11T02:59:13;101494.63;;;15.94;100.00
72896;BME280;61036;53.224;6.554;2023-05-11T03:01:40;101494.78;;;15.61;100.00
72896;BME280;61036;53.224;6.554;2023-05-11T03:04:06;101502.16;;;15.49;100.00
72896;BME280;61036;53.224;6.554;2023-05-11T03:06:31;101499.09;;;15.74;100.00
72896;BME280;61036;53.224;6.554;2023-05-11T03:08:59;101494.16;;;16.10;100.00
72896;BME280;61036;53.224;6.554;2023-05-11T03:11:26;101490.09;;;16.26;100.00
72896;BME280;61036;53.224;6.554;2023-05-11T03:13:52;101491.97;;;16.04;100.00
72896;BME280;61036;53.224;6.554;2023-05-11T03:16:19;101487.00;;;15.88;100.00
72896;BME280;61036;53.224;6.554;2023-05-11T03:18:46;101500.94;;;15.95;100.00
72896;BME280;61036;53.224;6.554;2023-05-11T03:21:17;101501.78;;;16.16;100.00
72896;BME280;61036;53.224;6.554;2023-05-11T03:23:46;101503.31;;;15.88;100.00
72896;BME280;61036;53.224;6.554;2023-05-11T03:26:18;101502.34;;;15.68;100.00
72896;BME280;61036;53.224;6.554;2023-05-11T03:28:46;101502.06;;;16.44;100.00
72896;BME280;61036;53.224;6.554;2023-05-11T03:31:12;101498.91;;;15.55;100.00
72896;BME280;61036;53.224;6.554;2023-05-11T03:33:38;101495.59;;;16.14;100.00
72896;BME280;61036;53.224;6.554;2023-05-11T03:36:08;101499.28;;;16.04;100.00
72896;BME280;61036;53.224;6.554;2023-05-11T03:38:35;101500.41;;;16.62;100.00
72896;BME280;61036;53.224;6.554;2023-05-11T03:41:01;101508.53;;;16.93;100.00
72896;BME280;61036;53.224;6.554;2023-05-11T03:43:31;101500.41;;;17.12;100.00
72896;BME280;61036;53.224;6.554;2023-05-11T03:45:59;101497.50;;;16.54;100.00
72896;BME280;61036;53.224;6.554;2023-05-11T03:48:27;101498.09;;;16.98;100.00
72896;BME280;61036;53.224;6.554;2023-05-11T03:50:53;101492.53;;;16.69;100.00
72896;BME280;61036;53.224;6.554;2023-05-11T03:53:19;101492.66;;;16.58;100.00
72896;BME280;61036;53.224;6.554;2023-05-11T03:55:45;101495.16;;;16.40;100.00
72896;BME280;61036;53.224;6.554;2023-05-11T03:58:10;101485.34;;;16.58;100.00
72896;BME280;61036;53.224;6.554;2023-05-11T04:00:40;101486.72;;;16.43;100.00
72896;BME280;61036;53.224;6.554;2023-05-11T04:03:10;101501.09;;;16.55;100.00
72896;BME280;61036;53.224;6.554;2023-05-11T04:05:37;101495.59;;;16.14;100.00
72896;BME280;61036;53.224;6.554;2023-05-11T04:08:05;101493.06;;;16.53;100.00
72896;BME280;61036;53.224;6.554;2023-05-11T04:10:31;101489.97;;;16.06;100.00
72896;BME280;61036;53.224;6.554;2023-05-11T04:12:57;101495.44;;;16.37;100.00
72896;BME280;61036;53.224;6.554;2023-05-11T04:15:22;101490.47;;;16.21;100.00
72896;BME280;61036;53.224;6.554;2023-05-11T04:17:48;101494.56;;;16.06;100.00
72896;BME280;61036;53.224;6.554;2023-05-11T04:20:13;101488.13;;;16.37;100.00
72896;BME280;61036;53.224;6.554;2023-05-11T04:22:39;101491.09;;;16.25;100.00
72896;BME280;61036;53.224;6.554;2023-05-11T04:25:04;101493.75;;;16.86;100.00
72896;BME280;61036;53.224;6.554;2023-05-11T04:27:34;101494.94;;;17.03;100.00
72896;BME280;61036;53.224;6.554;2023-05-11T04:30:02;101496.50;;;17.05;100.00
72896;BME280;61036;53.224;6.554;2023-05-11T04:32:27;101498.06;;;16.88;100.00
72896;BME280;61036;53.224;6.554;2023-05-11T04:34:55;101495.38;;;16.58;100.00
72896;BME280;61036;53.224;6.554;2023-05-11T04:37:23;101490.38;;;16.73;100.00
72896;BME280;61036;53.224;6.554;2023-05-11T04:39:48;101487.91;;;16.60;100.00
72896;BME280;61036;53.224;6.554;2023-05-11T04:42:14;101481.78;;;16.67;100.00
72896;BME280;61036;53.224;6.554;2023-05-11T04:44:41;101490.00;;;16.37;100.00
72896;BME280;61036;53.224;6.554;2023-05-11T04:47:07;101492.63;;;16.98;100.00
72896;BME280;61036;53.224;6.554;2023-05-11T04:49:32;101483.31;;;16.60;100.00
72896;BME280;61036;53.224;6.554;2023-05-11T04:51:58;101495.09;;;16.30;100.00
72896;BME280;61036;53.224;6.554;2023-05-11T04:54:24;101490.72;;;16.49;100.00
72896;BME280;61036;53.224;6.554;2023-05-11T04:56:50;101494.63;;;16.46;100.00
72896;BME280;61036;53.224;6.554;2023-05-11T04:59:16;101492.88;;;16.45;100.00
72896;BME280;61036;53.224;6.554;2023-05-11T05:01:42;101495.22;;;16.19;100.00
72896;BME280;61036;53.224;6.554;2023-05-11T05:04:08;101498.81;;;17.00;100.00
72896;BME280;61036;53.224;6.554;2023-05-11T05:06:34;101498.06;;;16.79;100.00
72896;BME280;61036;53.224;6.554;2023-05-11T05:08:59;101499.06;;;16.87;100.00
72896;BME280;61036;53.224;6.554;2023-05-11T05:11:25;101500.53;;;17.01;100.00
72896;BME280;61036;53.224;6.554;2023-05-11T05:13:50;101509.31;;;16.64;100.00
72896;BME280;61036;53.224;6.554;2023-05-11T05:16:16;101511.69;;;15.96;100.00
72896;BME280;61036;53.224;6.554;2023-05-11T05:18:41;101518.06;;;15.86;100.00
72896;BME280;61036;53.224;6.554;2023-05-11T05:21:08;101528.25;;;16.45;100.00
72896;BME280;61036;53.224;6.554;2023-05-11T05:23:33;101524.72;;;16.23;100.00
72896;BME280;61036;53.224;6.554;2023-05-11T05:25:59;101533.78;;;16.95;100.00
72896;BME280;61036;53.224;6.554;2023-05-11T05:28:25;101533.22;;;17.01;100.00
72896;BME280;61036;53.224;6.554;2023-05-11T05:30:50;101541.03;;;16.44;100.00
72896;BME280;61036;53.224;6.554;2023-05-11T05:33:15;101537.47;;;16.54;100.00
72896;BME280;61036;53.224;6.554;2023-05-11T05:35:41;101547.28;;;16.66;100.00
72896;BME280;61036;53.224;6.554;2023-05-11T05:38:11;101548.91;;;17.19;100.00
72896;BME280;61036;53.224;6.554;2023-05-11T05:40:37;101558.84;;;17.58;100.00
72896;BME280;61036;53.224;6.554;2023-05-11T05:43:04;101561.00;;;17.45;100.00
72896;BME280;61036;53.224;6.554;2023-05-11T05:45:30;101562.69;;;17.36;100.00
72896;BME280;61036;53.224;6.554;2023-05-11T05:47:56;101558.16;;;16.35;100.00
72896;BME280;61036;53.224;6.554;2023-05-11T05:50:25;101558.63;;;17.11;100.00
72896;BME280;61036;53.224;6.554;2023-05-11T05:52:51;101563.66;;;16.45;100.00
72896;BME280;61036;53.224;6.554;2023-05-11T05:55:18;101569.38;;;16.42;100.00
72896;BME280;61036;53.224;6.554;2023-05-11T05:57:46;101569.38;;;16.42;100.00
72896;BME280;61036;53.224;6.554;2023-05-11T06:00:11;101573.72;;;17.16;100.00
72896;BME280;61036;53.224;6.554;2023-05-11T06:02:40;101583.03;;;17.23;100.00
72896;BME280;61036;53.224;6.554;2023-05-11T06:05:08;101579.88;;;15.84;100.00
72896;BME280;61036;53.224;6.554;2023-05-11T06:07:35;101580.22;;;16.94;100.00
72896;BME280;61036;53.224;6.554;2023-05-11T06:10:01;101581.78;;;17.56;100.00
72896;BME280;61036;53.224;6.554;2023-05-11T06:12:28;101572.03;;;17.34;100.00
72896;BME280;61036;53.224;6.554;2023-05-11T06:14:55;101582.06;;;16.32;100.00
72896;BME280;61036;53.224;6.554;2023-05-11T06:17:21;101578.94;;;17.67;100.00
72896;BME280;61036;53.224;6.554;2023-05-11T06:19:48;101578.22;;;18.23;100.00
72896;BME280;61036;53.224;6.554;2023-05-11T06:22:15;101576.38;;;17.75;100.00
72896;BME280;61036;53.224;6.554;2023-05-11T06:24:41;101581.78;;;17.46;100.00
72896;BME280;61036;53.224;6.554;2023-05-11T06:27:07;101580.31;;;18.39;100.00
72896;BME280;61036;53.224;6.554;2023-05-11T06:29:33;101579.63;;;17.40;100.00
72896;BME280;61036;53.224;6.554;2023-05-11T06:32:00;101577.91;;;18.26;100.00
72896;BME280;61036;53.224;6.554;2023-05-11T06:34:26;101577.38;;;18.03;100.00
72896;BME280;61036;53.224;6.554;2023-05-11T06:36:53;101577.88;;;18.36;100.00
72896;BME280;61036;53.224;6.554;2023-05-11T06:39:19;101579.63;;;17.40;100.00
72896;BME280;61036;53.224;6.554;2023-05-11T06:41:45;101578.44;;;17.13;100.00
72896;BME280;61036;53.224;6.554;2023-05-11T06:44:11;101595.47;;;17.85;100.00
72896;BME280;61036;53.224;6.554;2023-05-11T06:46:37;101594.00;;;17.52;100.00
72896;BME280;61036;53.224;6.554;2023-05-11T06:49:03;101589.97;;;17.66;100.00
72896;BME280;61036;53.224;6.554;2023-05-11T06:51:29;101590.88;;;17.86;100.00
72896;BME280;61036;53.224;6.554;2023-05-11T06:53:54;101590.75;;;17.97;100.00
72896;BME280;61036;53.224;6.554;2023-05-11T06:56:20;101591.91;;;17.85;100.00
72896;BME280;61036;53.224;6.554;2023-05-11T06:58:46;101588.28;;;18.03;100.00
72896;BME280;61036;53.224;6.554;2023-05-11T07:01:12;101588.44;;;18.59;100.00
72896;BME280;61036;53.224;6.554;2023-05-11T07:03:37;101595.59;;;18.13;100.00
72896;BME280;61036;53.224;6.554;2023-05-11T07:06:03;101589.91;;;17.17;100.00
72896;BME280;61036;53.224;6.554;2023-05-11T07:08:29;101594.19;;;17.79;100.00
72896;BME280;61036;53.224;6.554;2023-05-11T07:10:54;101588.53;;;17.42;100.00
72896;BME280;61036;53.224;6.554;2023-05-11T07:13:20;101594.06;;;17.81;100.00
72896;BME280;61036;53.224;6.554;2023-05-11T07:15:45;101592.00;;;17.54;100.00
72896;BME280;61036;53.224;6.554;2023-05-11T07:18:11;101596.72;;;18.30;100.00
72896;BME280;61036;53.224;6.554;2023-05-11T07:20:36;101595.78;;;17.82;100.00
72896;BME280;61036;53.224;6.554;2023-05-11T07:23:04;101591.72;;;17.96;100.00
72896;BME280;61036;53.224;6.554;2023-05-11T07:25:29;101606.81;;;18.00;100.00
72896;BME280;61036;53.224;6.554;2023-05-11T07:27:55;101604.09;;;17.80;100.00
72896;BME280;61036;53.224;6.554;2023-05-11T07:30:20;101613.53;;;17.76;100.00
72896;BME280;61036;53.224;6.554;2023-05-11T07:32:46;101607.28;;;17.26;100.00
72896;BME280;61036;53.224;6.554;2023-05-11T07:35:12;101613.75;;;17.25;100.00
72896;BME280;61036;53.224;6.554;2023-05-11T07:37:39;101617.03;;;17.88;100.00
72896;BME280;61036;53.224;6.554;2023-05-11T07:40:05;101607.13;;;18.63;100.00
72896;BME280;61036;53.224;6.554;2023-05-11T07:42:31;101611.06;;;17.44;100.00
72896;BME280;61036;53.224;6.554;2023-05-11T07:44:57;101607.94;;;18.26;100.00
72896;BME280;61036;53.224;6.554;2023-05-11T07:47:22;101617.25;;;17.66;100.00
72896;BME280;61036;53.224;6.554;2023-05-11T07:49:49;101610.38;;;18.30;100.00
72896;BME280;61036;53.224;6.554;2023-05-11T07:52:15;101609.13;;;18.14;100.00
72896;BME280;61036;53.224;6.554;2023-05-11T07:54:40;101608.22;;;18.33;100.00
72896;BME280;61036;53.224;6.554;2023-05-11T07:57:06;101607.72;;;18.57;100.00
72896;BME280;61036;53.224;6.554;2023-05-11T07:59:32;101608.69;;;18.09;100.00
72896;BME280;61036;53.224;6.554;2023-05-11T08:01:57;101610.78;;;18.44;100.00
72896;BME280;61036;53.224;6.554;2023-05-11T08:04:23;101615.00;;;18.00;100.00
72896;BME280;61036;53.224;6.554;2023-05-11T08:06:48;101614.38;;;18.45;100.00
72896;BME280;61036;53.224;6.554;2023-05-11T08:09:14;101612.25;;;17.61;100.00
72896;BME280;61036;53.224;6.554;2023-05-11T08:11:40;101611.00;;;17.94;100.00
72896;BME280;61036;53.224;6.554;2023-05-11T08:14:06;101617.97;;;18.45;100.00
72896;BME280;61036;53.224;6.554;2023-05-11T08:16:31;101611.72;;;18.06;100.00
72896;BME280;61036;53.224;6.554;2023-05-11T08:18:57;101619.28;;;18.41;100.00
72896;BME280;61036;53.224;6.554;2023-05-11T08:21:23;101618.00;;;18.16;100.00
72896;BME280;61036;53.224;6.554;2023-05-11T08:23:48;101628.97;;;18.63;100.00
72896;BME280;61036;53.224;6.554;2023-05-11T08:26:14;101625.03;;;18.38;100.00
72896;BME280;61036;53.224;6.554;2023-05-11T08:28:39;101635.63;;;17.54;100.00
72896;BME280;61036;53.224;6.554;2023-05-11T08:31:06;101635.00;;;18.77;100.00
72896;BME280;61036;53.224;6.554;2023-05-11T08:33:31;101645.25;;;18.75;100.00
72896;BME280;61036;53.224;6.554;2023-05-11T08:35:57;101639.34;;;19.07;100.00
72896;BME280;61036;53.224;6.554;2023-05-11T08:38:23;101646.66;;;18.79;100.00
72896;BME280;61036;53.224;6.554;2023-05-11T08:40:50;101646.78;;;18.67;100.00
72896;BME280;61036;53.224;6.554;2023-05-11T08:43:17;101649.47;;;18.30;100.00
72896;BME280;61036;53.224;6.554;2023-05-11T08:45:44;101654.06;;;18.20;100.00
72896;BME280;61036;53.224;6.554;2023-05-11T08:48:17;101650.88;;;19.01;100.00
72896;BME280;61036;53.224;6.554;2023-05-11T08:50:45;101662.34;;;19.41;100.00
72896;BME280;61036;53.224;6.554;2023-05-11T08:53:12;101659.84;;;18.83;100.00
72896;BME280;61036;53.224;6.554;2023-05-11T08:55:38;101651.94;;;19.73;100.00
72896;BME280;61036;53.224;6.554;2023-05-11T08:58:05;101651.59;;;19.30;100.00
72896;BME280;61036;53.224;6.554;2023-05-11T09:00:32;101649.69;;;18.66;100.00
72896;BME280;61036;53.224;6.554;2023-05-11T09:02:58;101652.41;;;18.76;100.00
72896;BME280;61036;53.224;6.554;2023-05-11T09:05:25;101650.53;;;19.41;100.00
72896;BME280;61036;53.224;6.554;2023-05-11T09:07:54;101648.38;;;19.62;100.00
72896;BME280;61036;53.224;6.554;2023-05-11T09:10:20;101649.09;;;18.82;100.00
72896;BME280;61036;53.224;6.554;2023-05-11T09:12:46;101645.09;;;18.66;100.00
72896;BME280;61036;53.224;6.554;2023-05-11T09:15:12;101639.50;;;19.05;100.00
72896;BME280;61036;53.224;6.554;2023-05-11T09:17:37;101637.69;;;18.20;100.00
72896;BME280;61036;53.224;6.554;2023-05-11T09:20:04;101637.13;;;19.20;100.00
72896;BME280;61036;53.224;6.554;2023-05-11T09:22:32;101641.22;;;19.34;100.00
72896;BME280;61036;53.224;6.554;2023-05-11T09:24:59;101643.59;;;17.96;100.00
72896;BME280;61036;53.224;6.554;2023-05-11T09:27:26;101642.56;;;19.75;100.00
72896;BME280;61036;53.224;6.554;2023-05-11T09:29:54;101645.84;;;19.79;100.00
72896;BME280;61036;53.224;6.554;2023-05-11T09:32:19;101647.75;;;18.10;100.00
72896;BME280;61036;53.224;6.554;2023-05-11T09:34:45;101642.00;;;18.22;100.00
72896;BME280;61036;53.224;6.554;2023-05-11T09:37:17;101637.00;;;19.39;100.00
72896;BME280;61036;53.224;6.554;2023-05-11T09:39:43;101651.22;;;18.12;100.00
72896;BME280;61036;53.224;6.554;2023-05-11T09:44:41;101641.63;;;19.84;100.00
72896;BME280;61036;53.224;6.554;2023-05-11T09:47:11;101642.63;;;20.19;100.00
72896;BME280;61036;53.224;6.554;2023-05-11T09:49:45;101633.09;;;20.67;100.00
72896;BME280;61036;53.224;6.554;2023-05-11T09:52:17;101635.19;;;20.29;100.00
72896;BME280;61036;53.224;6.554;2023-05-11T09:54:50;101642.47;;;19.39;100.00
72896;BME280;61036;53.224;6.554;2023-05-11T09:57:26;101641.31;;;19.87;100.00
72896;BME280;61036;53.224;6.554;2023-05-11T09:59:54;101642.47;;;20.03;100.00
72896;BME280;61036;53.224;6.554;2023-05-11T10:02:20;101633.09;;;20.67;100.00
72896;BME280;61036;53.224;6.554;2023-05-11T10:04:48;101636.88;;;20.30;100.00
72896;BME280;61036;53.224;6.554;2023-05-11T10:07:33;101639.44;;;20.68;100.00
72896;BME280;61036;53.224;6.554;2023-05-11T10:10:01;101634.69;;;20.78;100.00
72896;BME280;61036;53.224;6.554;2023-05-11T10:12:28;101637.50;;;19.80;100.00
72896;BME280;61036;53.224;6.554;2023-05-11T10:17:27;101633.66;;;21.13;100.00
72896;BME280;61036;53.224;6.554;2023-05-11T10:19:57;101632.63;;;21.06;100.00
72896;BME280;61036;53.224;6.554;2023-05-11T10:22:24;101630.31;;;20.41;100.00
72896;BME280;61036;53.224;6.554;2023-05-11T10:24:50;101639.69;;;20.83;100.00
72896;BME280;61036;53.224;6.554;2023-05-11T10:27:20;101630.97;;;21.80;100.00
72896;BME280;61036;53.224;6.554;2023-05-11T10:29:46;101635.38;;;21.57;100.00
72896;BME280;61036;53.224;6.554;2023-05-11T10:32:14;101633.38;;;21.75;100.00
72896;BME280;61036;53.224;6.554;2023-05-11T10:34:42;101643.00;;;22.04;100.00
72896;BME280;61036;53.224;6.554;2023-05-11T10:37:08;101631.97;;;21.63;100.00
72896;BME280;61036;53.224;6.554;2023-05-11T10:39:38;101631.66;;;21.99;100.00
72896;BME280;61036;53.224;6.554;2023-05-11T11:01:59;101638.34;;;21.63;100.00
72896;BME280;61036;53.224;6.554;2023-05-11T11:04:43;101635.94;;;21.93;100.00
72896;BME280;61036;53.224;6.554;2023-05-11T11:07:10;101625.22;;;20.46;100.00
72896;BME280;61036;53.224;6.554;2023-05-11T11:09:59;101632.91;;;22.53;100.00
72896;BME280;61036;53.224;6.554;2023-05-11T11:12:27;101628.59;;;21.94;100.00
72896;BME280;61036;53.224;6.554;2023-05-11T11:14:54;101627.06;;;22.48;100.00
72896;BME280;61036;53.224;6.554;2023-05-11T11:17:25;101625.66;;;22.44;100.00
72896;BME280;61036;53.224;6.554;2023-05-11T11:19:52;101624.75;;;22.76;100.00
72896;BME280;61036;53.224;6.554;2023-05-11T11:24:59;101639.44;;;22.11;100.00
72896;BME280;61036;53.224;6.554;2023-05-11T11:32:43;101636.19;;;22.24;100.00
72896;BME280;61036;53.224;6.554;2023-05-11T11:38:20;101631.06;;;23.01;100.00
72896;BME280;61036;53.224;6.554;2023-05-11T11:40:49;101622.84;;;23.64;100.00
72896;BME280;61036;53.224;6.554;2023-05-11T11:43:23;101630.16;;;22.53;100.00
72896;BME280;61036;53.224;6.554;2023-05-11T11:48:32;101626.81;;;23.92;100.00
72896;BME280;61036;53.224;6.554;2023-05-11T11:51:04;101632.38;;;23.84;100.00
72896;BME280;61036;53.224;6.554;2023-05-11T11:56:06;101621.44;;;22.89;100.00
72896;BME280;61036;53.224;6.554;2023-05-11T12:01:05;101618.44;;;23.23;100.00
72896;BME280;61036;53.224;6.554;2023-05-11T12:03:34;101614.47;;;23.57;100.00
72896;BME280;61036;53.224;6.554;2023-05-11T12:06:01;101622.09;;;22.27;100.00
72896;BME280;61036;53.224;6.554;2023-05-11T12:08:28;101617.75;;;22.66;100.00
72896;BME280;61036;53.224;6.554;2023-05-11T12:10:58;101619.84;;;22.31;100.00
72896;BME280;61036;53.224;6.554;2023-05-11T12:13:24;101632.88;;;22.62;100.00
72896;BME280;61036;53.224;6.554;2023-05-11T12:16:09;101621.81;;;22.94;100.00
72896;BME280;61036;53.224;6.554;2023-05-11T12:18:35;101628.84;;;22.89;100.00
72896;BME280;61036;53.224;6.554;2023-05-11T12:21:01;101625.22;;;23.67;100.00
72896;BME280;61036;53.224;6.554;2023-05-11T12:23:27;101631.38;;;22.18;100.00
72896;BME280;61036;53.224;6.554;2023-05-11T12:26:03;101622.84;;;23.41;100.00
72896;BME280;61036;53.224;6.554;2023-05-11T12:28:29;101618.19;;;23.64;100.00
72896;BME280;61036;53.224;6.554;2023-05-11T12:30:56;101622.41;;;23.52;100.00
72896;BME280;61036;53.224;6.554;2023-05-11T12:33:22;101622.41;;;22.49;100.00
72896;BME280;61036;53.224;6.554;2023-05-11T12:35:55;101611.56;;;22.64;100.00
72896;BME280;61036;53.224;6.554;2023-05-11T12:38:21;101615.56;;;23.09;100.00
72896;BME280;61036;53.224;6.554;2023-05-11T12:40:48;101609.22;;;23.08;100.00
72896;BME280;61036;53.224;6.554;2023-05-11T12:43:18;101607.75;;;23.60;100.00
72896;BME280;61036;53.224;6.554;2023-05-11T12:45:44;101620.53;;;22.08;100.00
72896;BME280;61036;53.224;6.554;2023-05-11T12:48:11;101616.44;;;23.01;100.00
72896;BME280;61036;53.224;6.554;2023-05-11T12:50:41;101622.56;;;21.98;100.00
72896;BME280;61036;53.224;6.554;2023-05-11T12:53:14;101613.31;;;23.12;100.00
72896;BME280;61036;53.224;6.554;2023-05-11T12:55:41;101620.16;;;23.56;100.00
72896;BME280;61036;53.224;6.554;2023-05-11T12:58:14;101621.63;;;24.58;100.00
72896;BME280;61036;53.224;6.554;2023-05-11T13:00:56;101618.31;;;23.17;100.00
72896;BME280;61036;53.224;6.554;2023-05-11T13:03:27;101618.00;;;23.74;100.00
72896;BME280;61036;53.224;6.554;2023-05-11T13:06:12;101617.75;;;23.52;100.00
72896;BME280;61036;53.224;6.554;2023-05-11T13:08:39;101623.47;;;23.43;100.00
72896;BME280;61036;53.224;6.554;2023-05-11T13:11:24;101625.06;;;22.98;100.00
72896;BME280;61036;53.224;6.554;2023-05-11T13:13:55;101615.44;;;22.94;100.00
72896;BME280;61036;53.224;6.554;2023-05-11T13:16:31;101617.00;;;22.96;100.00
72896;BME280;61036;53.224;6.554;2023-05-11T13:19:00;101613.56;;;23.65;100.00
72896;BME280;61036;53.224;6.554;2023-05-11T13:21:25;101618.13;;;22.05;100.00
72896;BME280;61036;53.224;6.554;2023-05-11T13:23:53;101615.25;;;23.03;100.00
72896;BME280;61036;53.224;6.554;2023-05-11T13:26:24;101622.19;;;23.31;100.00
72896;BME280;61036;53.224;6.554;2023-05-11T13:28:50;101621.56;;;22.40;100.00
72896;BME280;61036;53.224;6.554;2023-05-11T13:31:16;101617.94;;;22.07;100.00
72896;BME280;61036;53.224;6.554;2023-05-11T13:33:45;101619.81;;;22.64;100.00
72896;BME280;61036;53.224;6.554;2023-05-11T13:36:10;101618.63;;;22.58;100.00